Latest Weather Observations for Horsham AWS

IDV60801

Issued at 2:05 pm EST Tuesday 2 September 2014 (issued every 30 minutes, with the page automatically refreshed every 10 minutes)

About weather observations | Map of weather stations | Latest weather observations for VIC | Other Formats
Station Details ID: 079100 Name: HORSHAM AERODROME Lat: -36.67 Lon: 142.17 Height: 133.8 m
Data from the previous 72 hours. | See also: Recent months at Horsham AWS
Date/Time
EST
Temp
°C
App
Temp
°C
Dew
Point
Rel
Hum
%
Delta-T
°C
Wind Press
QNH
hPa
Press
MSL
hPa
Rain
since 9 am
mm
Dir
 
Spd
km/h
Gust
km/h
Spd
kts
Gust
kts
02/02:00pm 14.7 7.1 4.1 49 4.9 SSW 33 41 18 22 1021.1 1021.3 0.0
02/01:30pm 14.9 8.2 3.4 46 5.2 S 28 39 15 21 1021.1 1021.3 0.0
02/01:00pm 14.2 7.0 3.1 47 5.0 S 30 44 16 24 1021.4 1021.5 0.0
02/12:30pm 13.9 6.7 3.1 48 4.9 SSW 30 41 16 22 1021.7 1021.8 0.0
02/12:00pm 13.7 6.2 3.5 50 4.6 S 32 39 17 21 1021.7 1021.8 0.0
02/11:30am 13.7 6.7 4.0 52 4.4 S 30 41 16 22 1021.9 1022.0 0.0
02/11:00am 11.5 4.2 5.4 66 2.8 SSW 33 43 18 23 1021.9 1022.0 0.0
02/10:30am 11.2 4.5 5.5 68 2.6 SSW 30 39 16 21 1021.8 1021.9 0.0
02/10:00am 10.7 5.4 6.8 77 1.8 SSW 24 33 13 18 1021.4 1021.5 0.0
02/09:30am 9.4 4.5 7.0 85 1.1 SW 22 28 12 15 1021.5 1021.6 0.0
02/09:00am 8.1 3.6 6.9 92 0.6 SW 20 24 11 13 1021.2 1021.4 3.2
02/08:30am 5.9 2.0 5.3 96 0.3 SW 15 20 8 11 1020.8 1020.9 3.2
02/08:00am 4.6 0.1 4.2 97 0.2 SW 17 19 9 10 1020.3 1020.4 3.2
02/07:30am 2.9 -1.5 2.5 97 0.2 WSW 15 19 8 10 1019.7 1019.8 3.2
02/07:00am 2.3 -3.0 1.9 97 0.2 SW 19 20 10 11 1019.1 1019.2 3.2
02/06:30am 1.9 -1.9 1.5 97 0.2 SW 11 15 6 8 1018.6 1018.7 3.2
02/06:00am 2.5 -1.6 2.1 97 0.2 WSW 13 15 7 8 1018.3 1018.4 3.2
02/05:30am 1.9 -1.6 1.5 97 0.2 W 9 13 5 7 1017.9 1018.0 3.0
02/05:00am 3.2 -0.4 2.8 97 0.2 W 11 13 6 7 1017.4 1017.5 3.0
02/04:30am 3.5 -0.4 3.2 98 0.1 WSW 13 15 7 8 1017.3 1017.4 3.0
02/04:00am 3.3 -0.7 3.0 98 0.1 WSW 13 17 7 9 1017.1 1017.2 3.0
02/03:30am 2.3 -1.8 2.0 98 0.1 WSW 13 17 7 9 1016.8 1016.9 3.0
02/03:00am 1.4 -2.5 1.0 97 0.2 SW 11 15 6 8 1016.5 1016.6 3.0
02/02:30am 2.9 -1.2 2.5 97 0.2 SW 13 13 7 7 1016.3 1016.4 3.0
02/02:00am 3.5 0.3 3.1 97 0.2 WSW 9 13 5 7 1016.2 1016.3 3.0
02/01:30am 4.1 0.3 3.7 97 0.2 W 13 15 7 8 1016.2 1016.3 3.0
02/01:00am 4.0 0.9 3.6 97 0.2 WSW 9 13 5 7 1015.8 1015.9 3.0
02/12:30am 4.7 1.7 4.1 96 0.3 W 9 11 5 6 1015.7 1015.8 3.0
02/12:00am 5.2 1.9 4.6 96 0.3 W 11 13 6 7 1015.7 1015.8 3.0
 
Date/Time
EST
Temp
°C
App
Temp
°C
Dew
Point
Rel
Hum
%
Delta-T
°C
Wind Press
QNH
hPa
Press
MSL
hPa
Rain
since 9 am
mm
Dir
 
Spd
km/h
Gust
km/h
Spd
kts
Gust
kts
01/11:30pm 5.1 1.4 4.4 95 0.3 W 13 13 7 7 1015.5 1015.6 3.0
01/11:00pm 5.7 2.1 5.1 96 0.3 W 13 15 7 8 1015.5 1015.6 3.0
01/10:30pm 5.6 2.7 4.9 95 0.3 W 9 13 5 7 1015.2 1015.3 3.0
01/10:00pm 6.4 3.3 5.5 94 0.4 WSW 11 11 6 6 1015.0 1015.1 3.0
01/09:30pm 7.0 4.0 5.9 93 0.5 SW 11 13 6 7 1014.8 1014.9 3.0
01/09:00pm 8.2 5.0 6.7 90 0.7 SW 13 17 7 9 1014.6 1014.6 3.0
01/08:30pm 9.1 6.0 7.2 88 0.9 WSW 13 17 7 9 1014.3 1014.3 3.0
01/08:00pm 9.7 5.4 7.1 84 1.2 SW 19 24 10 13 1014.0 1014.0 3.0
01/07:30pm 9.6 6.5 7.2 85 1.1 SW 13 17 7 9 1013.6 1013.6 3.0
01/07:00pm 9.2 6.8 6.8 85 1.1 WSW 9 11 5 6 1012.8 1012.9 3.0
01/06:30pm 8.7 5.7 6.0 83 1.2 W 11 13 6 7 1012.3 1012.4 3.0
01/06:00pm 9.9 7.5 7.2 83 1.3 W 9 11 5 6 1011.9 1012.0 3.0
01/05:30pm 11.6 8.5 7.3 75 2.1 SW 13 19 7 10 1011.3 1011.4 3.0
01/05:00pm 12.5 8.3 7.4 71 2.5 SW 19 30 10 16 1011.2 1011.3 3.0
01/04:30pm 12.6 8.3 7.7 72 2.4 WSW 20 28 11 15 1011.1 1011.2 3.0
01/04:00pm 12.5 8.2 7.8 73 2.3 WSW 20 30 11 16 1010.6 1010.7 3.0
01/03:30pm 12.2 7.7 8.5 78 1.8 SSW 22 28 12 15 1010.3 1010.4 3.0
01/03:00pm 10.7 6.2 8.6 87 1.0 SSW 22 28 12 15 1010.1 1010.2 3.0
01/02:47pm 9.4 3.4 7.2 86 1.0 SSW 28 33 15 18 1010.2 1010.3 3.0
01/02:34pm 11.2 3.5 8.6 84 1.3 SW 39 52 21 28 1010.0 1010.1 3.0
01/02:30pm 12.1 9.4 10.5 90 0.8 WSW 15 22 8 12 1009.9 1010.0 3.0
01/02:02pm 10.9 3.5 8.3 84 1.3 WSW 37 56 20 30 1010.1 1010.2 0.8
01/02:01pm 11.3 3.5 8.2 81 1.5 WSW 39 56 21 30 1010.0 1010.1 0.4
01/02:00pm 12.2 8.0 8.3 77 1.9 WNW 20 56 11 30 1010.0 1010.1 0.0
01/01:30pm 14.1 11.2 9.5 74 2.4 WNW 15 20 8 11 1009.7 1009.8 0.0
01/01:00pm 13.4 9.1 9.3 76 2.1 WNW 22 26 12 14 1010.2 1010.3 0.0
01/12:30pm 13.2 9.0 9.6 79 1.9 W 22 26 12 14 1010.3 1010.4 0.0
01/12:00pm 12.9 9.1 9.9 82 1.6 W 20 26 11 14 1010.4 1010.5 0.0
01/11:30am 12.7 9.3 10.6 87 1.1 WNW 19 28 10 15 1010.7 1010.8 0.0
01/11:00am 12.2 9.2 10.6 90 0.8 WNW 17 24 9 13 1010.6 1010.7 0.0
01/10:30am 12.1 8.5 10.7 91 0.7 WNW 20 32 11 17 1010.7 1010.8 0.0
01/10:12am 12.3 9.5 11.4 94 0.5 WNW 17 22 9 12 1010.7 1010.8 0.0
01/10:00am 11.9 8.7 11.1 95 0.4 WNW 19 24 10 13 1010.6 1010.7 0.0
01/09:30am 11.5 8.2 10.9 96 0.3 WNW 19 28 10 15 1010.7 1010.9 0.0
01/09:00am 11.5 8.6 11.0 97 0.3 NW 17 22 9 12 1010.5 1010.7 3.4
01/08:49am 11.3 8.7 10.8 97 0.3 NNW 15 20 8 11 1010.4 1010.6 3.4
01/08:30am 11.0 9.1 10.5 97 0.3 NNW 11 15 6 8 1010.2 1010.4 3.4
01/08:00am 10.9 8.6 10.4 97 0.3 NNW 13 17 7 9 1010.2 1010.4 3.4
01/07:30am 10.6 8.9 10.0 96 0.3 N 9 11 5 6 1009.8 1010.0 3.2
01/07:00am 10.9 8.9 10.1 95 0.4 W 11 15 6 8 1009.8 1010.0 2.4
01/06:30am 11.1 8.3 10.0 93 0.6 W 15 22 8 12 1009.4 1009.6 1.2
01/06:00am 11.2 9.4 9.6 90 0.8 W 9 13 5 7 1009.1 1009.3 0.4
01/05:30am 11.0 8.8 9.3 89 0.9 NW 11 13 6 7 1009.3 1009.5 0.0
01/05:00am 11.8 9.1 7.3 74 2.2 W 11 15 6 8 1009.1 1009.3 0.0
01/04:30am 12.7 8.5 5.6 62 3.3 W 17 22 9 12 1009.2 1009.4 0.0
01/04:00am 12.3 8.3 5.0 61 3.4 W 15 17 8 9 1009.0 1009.2 0.0
01/03:30am 12.9 8.3 3.6 53 4.2 WNW 17 22 9 12 1009.2 1009.4 0.0
01/03:00am 11.7 8.3 4.0 59 3.5 NW 11 13 6 7 1008.9 1009.1 0.0
01/02:30am 12.3 8.4 3.3 54 4.0 NW 13 13 7 7 1008.9 1009.1 0.0
01/02:00am 13.2 7.5 2.7 49 4.7 WNW 22 37 12 20 1009.2 1009.4 0.0
01/01:30am 13.9 8.5 2.2 45 5.2 N 20 24 11 13 1008.1 1008.3 0.0
01/01:00am 13.6 8.4 2.5 47 4.9 N 19 24 10 13 1008.1 1008.3 0.0
01/12:30am 13.4 8.2 2.6 48 4.8 N 19 24 10 13 1008.7 1008.9 0.0
01/12:00am 12.9 7.6 3.0 51 4.4 N 20 24 11 13 1009.2 1009.4 0.0
 
Date/Time
EST
Temp
°C
App
Temp
°C
Dew
Point
Rel
Hum
%
Delta-T
°C
Wind Press
QNH
hPa
Press
MSL
hPa
Rain
since 9 am
mm
Dir
 
Spd
km/h
Gust
km/h
Spd
kts
Gust
kts
31/11:30pm 12.2 7.5 3.2 54 4.0 N 17 19 9 10 1009.7 1009.9 0.0
31/11:00pm 11.3 6.7 3.8 60 3.4 NNE 17 19 9 10 1009.8 1010.0 0.0
31/10:30pm 11.4 6.8 3.9 60 3.4 NNE 17 19 9 10 1010.2 1010.4 0.0
31/10:00pm 11.1 6.6 4.3 63 3.1 N 17 17 9 9 1010.7 1010.9 0.0
31/09:30pm 11.6 7.1 4.3 61 3.3 NNE 17 19 9 10 1010.7 1010.9 0.0
31/09:00pm 10.8 6.4 4.7 66 2.8 N 17 19 9 10 1011.0 1011.2 0.0
31/08:30pm 11.9 8.2 4.6 61 3.3 N 13 15 7 8 1011.1 1011.3 0.0
31/08:00pm 13.4 8.4 3.8 52 4.4 NNE 19 20 10 11 1010.6 1010.8 0.0
31/07:30pm 14.1 9.1 3.8 50 4.7 NNE 19 22 10 12 1010.7 1010.9 0.0
31/07:00pm 14.7 9.9 4.4 50 4.8 NNE 19 22 10 12 1010.9 1011.1 0.0
31/06:30pm 14.7 10.3 5.0 52 4.6 NNE 17 19 9 10 1011.4 1011.6 0.0
31/06:00pm 15.6 11.2 4.6 48 5.2 N 17 19 9 10 1011.9 1012.1 0.0
31/05:30pm 18.0 12.8 2.3 35 7.2 NNW 19 22 10 12 1012.1 1012.3 0.0
31/05:00pm 19.6 14.2 2.5 32 8.0 NNW 20 24 11 13 1011.9 1012.1 0.0
31/04:30pm 20.5 16.1 4.9 36 7.7 NNW 17 22 9 12 1011.8 1012.0 0.0
31/04:00pm 20.4 15.5 4.0 34 7.9 NNW 19 24 10 13 1011.9 1012.1 0.0
31/03:30pm 21.5 15.4 2.7 29 8.9 NNW 24 33 13 18 1012.2 1012.4 0.0
31/03:00pm 22.2 14.5 2.3 27 9.4 NNW 32 44 17 24 1012.3 1012.5 0.0
31/02:30pm 23.0 15.0 1.4 24 10.1 NNW 33 50 18 27 1012.8 1013.0 0.0
31/02:00pm 23.0 14.9 3.0 27 9.7 N 35 54 19 29 1013.1 1013.3 0.0
31/01:57pm 23.0 14.8 2.5 26 9.8 N 35 54 19 29 1013.1 1013.3 0.0
31/01:30pm 21.7 14.8 4.7 33 8.4 N 30 41 16 22 1013.7 1013.9 0.0
31/01:00pm 22.0 14.9 3.6 30 8.9 N 30 37 16 20 1014.2 1014.4 0.0
31/12:30pm 21.9 17.0 4.9 33 8.4 N 20 32 11 17 1014.9 1015.1 0.0
31/12:00pm 19.7 15.7 8.4 48 5.9 N 19 24 10 13 1015.7 1015.9 0.0
31/11:30am 18.5 14.6 7.3 48 5.7 N 17 22 9 12 1016.3 1016.5 0.0
31/11:00am 16.7 12.7 6.5 51 5.0 NNE 17 20 9 11 1016.6 1016.8 0.0
31/10:30am 15.5 11.5 6.8 56 4.3 NNE 17 22 9 12 1017.0 1017.2 0.0
31/10:00am 13.6 10.1 7.2 65 3.1 ENE 15 19 8 10 1017.5 1017.7 0.0
31/09:30am 11.8 8.4 6.1 68 2.7 ENE 13 19 7 10 1017.8 1018.0 0.0
31/09:00am 10.9 6.7 5.9 71 2.3 ENE 17 22 9 12 1017.7 1017.9 0.0
31/08:30am 8.6 4.0 5.4 80 1.5 E 19 22 10 12 1017.6 1017.8 0.0
31/08:00am 7.6 2.8 4.7 82 1.3 E 19 26 10 14 1017.8 1018.0 0.0
31/07:30am 6.4 1.6 4.7 89 0.7 E 19 20 10 11 1018.0 1018.2 0.0
31/07:00am 4.8 -0.2 3.6 92 0.5 E 19 20 10 11 1018.0 1018.2 0.0
31/06:30am 5.5 1.0 4.3 92 0.5 E 17 20 9 11 1017.8 1018.0 0.0
31/06:00am 4.5 -0.1 3.5 93 0.4 E 17 20 9 11 1017.8 1018.0 0.0
31/05:30am 5.5 0.6 4.2 91 0.6 E 19 20 10 11 1017.7 1017.9 0.0
31/05:00am 5.2 0.3 4.3 94 0.4 E 19 20 10 11 1017.7 1017.9 0.0
31/04:30am 5.0 0.5 4.0 93 0.4 E 17 20 9 11 1017.6 1017.8 0.0
31/04:00am 5.6 0.8 4.4 92 0.5 E 19 20 10 11 1017.5 1017.7 0.0
31/03:30am 5.9 1.5 4.9 93 0.4 E 17 20 9 11 1017.7 1017.9 0.0
31/03:00am 4.9 0.7 3.9 93 0.4 E 15 17 8 9 1018.1 1018.3 0.0
31/02:30am 5.0 0.5 4.0 93 0.4 E 17 17 9 9 1018.4 1018.6 0.0
31/02:00am 4.2 -0.5 3.0 92 0.5 E 17 17 9 9 1018.8 1019.0 0.0
31/01:30am 4.6 0.6 3.1 90 0.6 ENE 13 15 7 8 1019.1 1019.3 0.0
31/01:00am 5.1 1.2 3.4 89 0.7 ENE 13 15 7 8 1019.2 1019.4 0.0
31/12:30am 5.8 1.3 4.3 90 0.6 E 17 19 9 10 1019.3 1019.5 0.0
31/12:00am 5.7 1.2 4.2 90 0.6 E 17 19 9 10 1019.4 1019.6 0.0
 
Date/Time
EST
Temp
°C
App
Temp
°C
Dew
Point
Rel
Hum
%
Delta-T
°C
Wind Press
QNH
hPa
Press
MSL
hPa
Rain
since 9 am
mm
Dir
 
Spd
km/h
Gust
km/h
Spd
kts
Gust
kts
30/11:30pm 5.8 1.6 4.0 88 0.8 E 15 17 8 9 1019.7 1019.9 0.0
30/11:00pm 6.7 2.3 4.5 86 1.0 E 17 19 9 10 1019.8 1020.1 0.0
30/10:30pm 7.0 2.2 4.8 86 1.0 E 19 20 10 11 1020.2 1020.5 0.0
30/10:00pm 7.2 2.5 5.2 87 0.9 E 19 20 10 11 1020.5 1020.8 0.0
30/09:30pm 6.7 2.3 4.5 86 1.0 E 17 19 9 10 1020.7 1021.0 0.0
30/09:00pm 7.9 3.5 5.0 82 1.3 E 17 19 9 10 1020.9 1021.2 0.0
30/08:30pm 9.2 4.7 6.1 81 1.4 E 19 20 10 11 1020.7 1021.0 0.0
30/08:00pm 8.9 4.3 5.6 80 1.5 E 19 20 10 11 1020.7 1021.0 0.0
30/07:30pm 11.0 8.0 6.0 71 2.3 E 11 13 6 7 1020.7 1021.0 0.0
30/07:00pm 13.3 10.8 6.6 64 3.2 ESE 9 11 5 6 1020.7 1021.0 0.0
30/06:30pm 15.5 13.2 7.3 58 4.1 E 9 9 5 5 1020.6 1020.9 0.0
30/06:00pm 16.0 14.7 9.9 67 3.2 E 7 9 4 5 1020.5 1020.8 0.0
30/05:30pm 19.5 18.4 8.5 49 5.8 NW 4 7 2 4 1020.4 1020.7 0.0
30/05:00pm 20.4 18.8 6.4 40 7.1 NNE 4 9 2 5 1020.4 1020.7 0.0
30/04:30pm 20.8 19.0 7.1 41 7.0 N 6 11 3 6 1020.5 1020.8 0.0
30/04:00pm 21.0 19.1 6.9 40 7.2 NNW 6 9 3 5 1020.6 1020.9 0.0
30/03:30pm 21.0 19.1 6.5 39 7.4 N 6 9 3 5 1020.8 1021.1 0.0
30/03:00pm 20.6 18.2 7.2 42 6.9 N 9 13 5 7 1021.1 1021.4 0.0
30/02:30pm 20.6 18.7 6.5 40 7.2 N 6 15 3 8 1021.6 1021.8 0.0

Other Formats:

Comma delimited format used in spreadsheet applications
http://www.bom.gov.au/fwo/IDV60801/IDV60801.95839.axf

JavaScript Object Notation format (JSON) in row-major order
http://www.bom.gov.au/fwo/IDV60801/IDV60801.95839.json